Time;durP1;ratioP1;P1;durP2;ratioP2;P2;SDS_P1;SDS_P2;PMS_P1;PMS_P2;Temp;Humidity;BMP_temperature;BMP_pressure;BME280_temperature;BME280_humidity;BME280_pressure;Samples;Min_cycle;Max_cycle;Signal;HPM_P1;HPM_P2
2023/01/24 00:01:28;;;;;;;17.03;13.97;;;2.30;99.90;;;;;;4975243;28;20665;-67
2023/01/24 00:03:54;;;;;;;18.80;14.93;;;2.40;99.90;;;;;;4989745;28;20177;-67
2023/01/24 00:06:20;;;;;;;18.13;14.60;;;2.40;99.90;;;;;;4974580;28;20183;-67
2023/01/24 00:08:45;;;;;;;16.60;13.83;;;2.40;99.90;;;;;;4974762;28;20169;-67
2023/01/24 00:11:13;;;;;;;16.97;14.63;;;2.40;99.90;;;;;;4989736;28;20179;-67
2023/01/24 00:13:39;;;;;;;14.07;12.37;;;2.40;99.90;;;;;;4974565;28;20173;-68
2023/01/24 00:16:06;;;;;;;15.67;13.47;;;2.40;99.90;;;;;;4985128;28;20559;-67
2023/01/24 00:18:32;;;;;;;16.97;12.87;;;2.30;99.90;;;;;;4994184;28;20184;-67
2023/01/24 00:21:03;;;;;;;14.37;12.30;;;2.40;99.90;;;;;;5009193;28;20187;-68
2023/01/24 00:23:29;;;;;;;13.37;11.97;;;2.40;99.90;;;;;;4993967;28;20220;-67
2023/01/24 00:25:55;;;;;;;13.40;12.00;;;2.40;99.90;;;;;;4994522;28;20247;-68
2023/01/24 00:28:21;;;;;;;13.17;11.73;;;2.40;99.90;;;;;;4992528;28;20208;-67
2023/01/24 00:30:46;;;;;;;13.97;12.37;;;2.40;99.90;;;;;;4994048;28;20173;-68
2023/01/24 00:33:12;;;;;;;16.00;12.07;;;2.40;99.90;;;;;;4994201;28;20191;-67
2023/01/24 00:35:38;;;;;;;13.93;11.73;;;2.40;99.90;;;;;;5008945;28;20247;-67
2023/01/24 00:38:04;;;;;;;15.50;12.30;;;2.40;99.90;;;;;;4994442;28;20176;-67
2023/01/24 00:40:30;;;;;;;14.13;12.50;;;2.40;99.90;;;;;;4993881;28;20181;-68
2023/01/24 00:42:55;;;;;;;14.23;11.20;;;2.40;99.90;;;;;;4994113;28;20251;-67
2023/01/24 00:45:21;;;;;;;12.83;11.47;;;2.40;99.90;;;;;;4993445;28;20573;-67
2023/01/24 00:47:47;;;;;;;14.10;11.00;;;2.40;99.90;;;;;;4993996;28;20223;-67
2023/01/24 00:50:13;;;;;;;12.07;10.80;;;2.40;99.90;;;;;;4993755;28;20675;-67
2023/01/24 00:52:39;;;;;;;12.17;10.97;;;2.40;99.90;;;;;;4994296;28;20310;-67
2023/01/24 00:55:04;;;;;;;11.97;10.77;;;2.40;99.90;;;;;;4993830;28;20238;-67
2023/01/24 00:57:30;;;;;;;11.67;10.37;;;2.40;99.90;;;;;;4994245;28;20214;-67
2023/01/24 00:59:56;;;;;;;13.27;10.90;;;2.40;99.90;;;;;;4995725;28;20187;-67
2023/01/24 01:02:22;;;;;;;11.90;10.73;;;2.40;99.90;;;;;;4997598;28;20210;-67
2023/01/24 01:04:47;;;;;;;11.30;10.20;;;2.40;99.90;;;;;;4997575;28;20564;-67
2023/01/24 01:07:13;;;;;;;13.47;11.20;;;2.50;99.90;;;;;;4997090;28;20204;-67
2023/01/24 01:09:39;;;;;;;12.30;10.40;;;2.40;99.90;;;;;;4997271;28;20177;-67
2023/01/24 01:12:05;;;;;;;11.77;10.40;;;2.40;99.90;;;;;;4997600;28;20165;-66
2023/01/24 01:14:31;;;;;;;11.53;10.33;;;2.40;99.90;;;;;;4997279;28;20543;-67
2023/01/24 01:16:57;;;;;;;11.47;10.27;;;2.40;99.90;;;;;;4996821;28;20223;-67
2023/01/24 01:19:22;;;;;;;11.83;10.53;;;2.40;99.90;;;;;;4997183;28;20215;-66
2023/01/24 01:21:49;;;;;;;12.00;10.90;;;2.40;99.90;;;;;;4998367;28;20179;-67
2023/01/24 01:24:15;;;;;;;12.30;10.23;;;2.40;99.90;;;;;;4996697;28;20243;-67
2023/01/24 01:26:41;;;;;;;11.03;9.93;;;2.40;99.90;;;;;;5012069;28;20705;-66
2023/01/24 01:29:07;;;;;;;11.33;10.10;;;2.40;99.90;;;;;;5011920;28;20608;-66
2023/01/24 01:31:32;;;;;;;12.80;10.13;;;2.40;99.90;;;;;;4997102;28;20537;-67
2023/01/24 01:33:58;;;;;;;11.07;9.97;;;2.40;99.90;;;;;;4996592;28;20637;-67
2023/01/24 01:36:24;;;;;;;11.93;10.13;;;2.40;99.90;;;;;;5011840;28;20183;-67
2023/01/24 01:38:49;;;;;;;10.87;9.87;;;2.40;99.90;;;;;;4996674;28;20172;-67
2023/01/24 01:41:15;;;;;;;11.70;10.50;;;2.40;99.90;;;;;;4996627;28;20218;-66
2023/01/24 01:44:37;;;;;;;10.73;9.63;;;2.40;99.90;;;;;;4996394;28;20195;-67
2023/01/24 01:46:34;;;;;;;10.57;9.57;;;2.40;99.90;;;;;;4996319;28;20197;-67
2023/01/24 01:49:04;;;;;;;11.20;10.10;;;2.40;99.90;;;;;;4996734;28;20534;-67
2023/01/24 01:51:43;;;;;;;11.87;10.47;;;2.30;99.90;;;;;;4997170;28;20203;-67
2023/01/24 01:54:44;;;;;;;13.10;10.93;;;2.40;99.90;;;;;;4996497;28;20554;-67
2023/01/24 01:57:21;;;;;;;11.00;9.90;;;2.40;99.90;;;;;;4955474;28;20203;-67
2023/01/24 02:00:02;;;;;;;12.27;10.67;;;2.40;99.90;;;;;;4996353;28;20164;-67
2023/01/24 02:02:28;;;;;;;11.87;10.50;;;2.40;99.90;;;;;;4996690;28;20193;-66
2023/01/24 02:05:04;;;;;;;14.63;10.37;;;2.40;99.90;;;;;;4996326;28;20703;-67
2023/01/24 02:07:30;;;;;;;11.93;10.63;;;2.40;99.90;;;;;;4996320;28;20204;-67
2023/01/24 02:09:57;;;;;;;11.50;10.30;;;2.40;99.90;;;;;;4996141;28;20247;-67
2023/01/24 02:12:33;;;;;;;12.93;11.57;;;2.40;99.90;;;;;;5010506;28;20196;-66
2023/01/24 02:18:10;;;;;;;11.37;10.27;;;2.40;99.90;;;;;;4996034;28;20676;-67
2023/01/24 02:20:47;;;;;;;12.03;10.83;;;2.30;99.90;;;;;;4995925;28;20206;-67
2023/01/24 02:23:36;;;;;;;12.47;10.77;;;2.30;99.90;;;;;;5010913;28;20220;-67
2023/01/24 02:26:13;;;;;;;13.83;10.90;;;2.30;99.90;;;;;;4985102;28;20226;-67
2023/01/24 02:28:43;;;;;;;12.70;11.20;;;2.30;99.90;;;;;;4995540;28;20559;-67
2023/01/24 02:31:09;;;;;;;12.90;11.37;;;2.30;99.90;;;;;;4996176;28;20169;-67
2023/01/24 02:33:35;;;;;;;12.20;11.00;;;2.30;99.90;;;;;;4995737;28;20191;-67
2023/01/24 02:36:16;;;;;;;12.53;11.27;;;2.30;99.90;;;;;;4995605;28;20563;-67
2023/01/24 02:38:48;;;;;;;11.47;10.40;;;2.30;99.90;;;;;;4995555;28;20204;-67
2023/01/24 02:41:17;;;;;;;11.83;10.63;;;2.30;99.90;;;;;;5010748;28;20239;-67
2023/01/24 02:43:48;;;;;;;12.20;10.93;;;2.30;99.90;;;;;;4995492;28;20645;-67
2023/01/24 02:46:14;;;;;;;13.50;10.73;;;2.30;99.90;;;;;;4995406;28;20267;-67
2023/01/24 02:48:39;;;;;;;12.57;11.27;;;2.40;99.90;;;;;;4995819;28;20212;-67
2023/01/24 02:53:50;;;;;;;12.37;10.57;;;2.30;99.90;;;;;;4996124;28;20598;-67
2023/01/24 02:59:00;;;;;;;12.50;11.30;;;2.30;99.90;;;;;;4995430;28;20264;-67
2023/01/24 03:01:25;;;;;;;13.27;10.93;;;2.30;99.90;;;;;;4995535;28;20657;-67
2023/01/24 03:03:52;;;;;;;12.33;11.13;;;2.30;99.90;;;;;;4995259;28;20259;-66
2023/01/24 03:06:18;;;;;;;13.73;11.90;;;2.30;99.90;;;;;;4995127;28;20239;-67
2023/01/24 03:08:45;;;;;;;13.33;11.33;;;2.30;99.90;;;;;;4995238;28;20233;-67
2023/01/24 03:11:11;;;;;;;13.23;11.20;;;2.30;99.90;;;;;;4994963;28;20200;-67
2023/01/24 03:35:34;;;;;;;12.40;11.10;;;2.30;99.90;;;;;;4994614;28;20227;-67
2023/01/24 03:40:44;;;;;;;13.93;12.00;;;2.30;99.90;;;;;;4994423;28;20175;-67
2023/01/24 03:43:10;;;;;;;14.87;12.67;;;2.30;99.90;;;;;;4995014;28;20263;-67
2023/01/24 03:45:38;;;;;;;14.57;12.73;;;2.30;99.90;;;;;;4992778;28;20359;-67
2023/01/24 03:48:12;;;;;;;13.87;12.40;;;2.30;99.90;;;;;;5009380;28;20278;-67
2023/01/24 03:53:27;;;;;;;17.23;12.70;;;2.20;99.90;;;;;;4994868;28;20176;-67
2023/01/24 03:55:58;;;;;;;13.27;11.83;;;2.30;99.90;;;;;;4994223;28;20193;-67
2023/01/24 03:58:26;;;;;;;14.07;12.27;;;2.20;99.90;;;;;;5009339;28;20239;-67
2023/01/24 04:00:52;;;;;;;13.47;12.07;;;2.20;99.90;;;;;;4994135;28;20184;-67
2023/01/24 04:03:18;;;;;;;14.57;11.83;;;2.20;99.90;;;;;;5009331;28;20223;-67
2023/01/24 04:05:47;;;;;;;14.50;12.67;;;2.20;99.90;;;;;;4992814;28;20207;-67
2023/01/24 04:08:13;;;;;;;17.03;12.27;;;2.20;99.90;;;;;;4994399;28;20207;-67
2023/01/24 04:10:38;;;;;;;15.50;12.43;;;2.20;99.90;;;;;;4994400;28;20165;-67
2023/01/24 04:13:04;;;;;;;12.33;11.07;;;2.20;99.90;;;;;;4994064;28;20540;-67
2023/01/24 04:15:32;;;;;;;15.07;12.87;;;2.20;99.90;;;;;;4993824;28;20211;-67
2023/01/24 04:18:00;;;;;;;13.47;12.07;;;2.20;99.90;;;;;;4994143;28;20208;-67
2023/01/24 04:20:28;;;;;;;14.07;12.57;;;2.20;99.90;;;;;;5009207;28;20212;-66
2023/01/24 04:22:54;;;;;;;14.43;12.90;;;2.20;99.90;;;;;;5009365;28;20215;-66
2023/01/24 04:25:20;;;;;;;13.60;12.30;;;2.20;99.90;;;;;;4993856;28;20215;-65
2023/01/24 04:27:46;;;;;;;15.03;12.23;;;2.20;99.90;;;;;;5009078;28;20212;-66
2023/01/24 04:30:14;;;;;;;15.47;12.83;;;2.20;99.90;;;;;;4993978;28;20656;-66
2023/01/24 04:32:40;;;;;;;15.73;12.57;;;2.20;99.90;;;;;;4992784;28;20208;-66
2023/01/24 04:35:06;;;;;;;14.50;12.90;;;2.20;99.90;;;;;;4996488;28;20207;-66
2023/01/24 04:37:33;;;;;;;14.97;13.00;;;2.10;99.90;;;;;;4998639;28;20181;-66
2023/01/24 04:40:02;;;;;;;12.73;11.43;;;2.10;99.90;;;;;;4997925;28;20633;-66
2023/01/24 04:42:28;;;;;;;14.80;12.47;;;2.10;99.90;;;;;;4997712;28;20260;-66
2023/01/24 04:44:53;;;;;;;14.67;11.77;;;2.10;99.90;;;;;;4997266;28;20298;-66
2023/01/24 04:47:19;;;;;;;14.77;13.20;;;2.10;99.90;;;;;;4997739;28;20287;-66
2023/01/24 04:49:45;;;;;;;14.53;12.40;;;2.10;99.90;;;;;;4996249;28;20637;-66
2023/01/24 04:52:12;;;;;;;16.27;13.43;;;2.10;99.90;;;;;;4997631;28;20284;-66
2023/01/24 04:54:41;;;;;;;15.40;13.03;;;2.10;99.90;;;;;;5012661;28;20610;-66
2023/01/24 04:57:10;;;;;;;16.20;12.50;;;2.10;99.90;;;;;;4997996;28;20191;-67
2023/01/24 04:59:36;;;;;;;15.70;13.53;;;2.10;99.90;;;;;;4997459;28;20191;-67
2023/01/24 05:02:02;;;;;;;13.90;12.50;;;2.10;99.90;;;;;;4997356;28;20188;-67
2023/01/24 05:04:27;;;;;;;14.00;12.07;;;2.10;99.90;;;;;;4997328;28;20207;-67
2023/01/24 05:06:53;;;;;;;15.23;13.63;;;2.10;99.90;;;;;;4997529;28;20294;-67
2023/01/24 05:09:19;;;;;;;15.07;12.90;;;2.10;99.90;;;;;;5012302;28;20184;-67
2023/01/24 05:11:45;;;;;;;14.63;13.03;;;2.10;99.90;;;;;;4997403;28;20183;-67
2023/01/24 05:14:11;;;;;;;17.27;13.13;;;2.10;99.90;;;;;;4997125;28;20193;-67
2023/01/24 05:16:37;;;;;;;14.13;12.70;;;2.10;99.90;;;;;;4997122;28;20532;-67
2023/01/24 05:19:03;;;;;;;15.53;12.83;;;2.10;99.90;;;;;;5012275;28;20216;-67
2023/01/24 05:21:29;;;;;;;14.80;13.17;;;2.10;99.90;;;;;;4997787;28;20161;-67
2023/01/24 05:23:55;;;;;;;13.83;12.03;;;2.20;99.90;;;;;;4997215;28;20595;-67
2023/01/24 05:26:23;;;;;;;15.13;12.10;;;2.10;99.90;;;;;;5012308;28;20184;-67
2023/01/24 05:28:50;;;;;;;14.60;13.00;;;2.10;99.90;;;;;;4996851;28;20296;-67
2023/01/24 05:31:16;;;;;;;18.10;13.90;;;2.10;99.90;;;;;;4997074;28;20175;-68
2023/01/24 05:33:42;;;;;;;16.37;13.43;;;2.10;99.90;;;;;;4997275;28;20177;-67
2023/01/24 05:36:13;;;;;;;13.70;12.10;;;2.10;99.90;;;;;;4997209;28;20196;-67
2023/01/24 05:38:40;;;;;;;16.33;13.57;;;2.10;99.90;;;;;;4996991;28;20168;-67
2023/01/24 05:41:08;;;;;;;13.93;12.43;;;2.10;99.90;;;;;;4996631;28;20172;-67
2023/01/24 05:43:35;;;;;;;17.93;13.40;;;2.10;99.90;;;;;;4996651;28;20184;-67
2023/01/24 05:46:04;;;;;;;17.30;13.07;;;2.10;99.90;;;;;;4995092;28;20224;-67
2023/01/24 05:48:30;;;;;;;16.00;13.13;;;2.10;99.90;;;;;;4996655;28;20208;-67
2023/01/24 05:51:04;;;;;;;13.40;12.07;;;2.10;99.90;;;;;;4997050;28;20539;-67
2023/01/24 05:53:32;;;;;;;16.00;13.00;;;2.10;99.90;;;;;;4996348;28;20637;-67
2023/01/24 05:56:00;;;;;;;14.07;12.60;;;2.10;99.90;;;;;;5011440;28;20243;-67
2023/01/24 05:58:27;;;;;;;15.03;13.47;;;2.10;99.90;;;;;;4996275;28;20533;-67
2023/01/24 06:00:53;;;;;;;15.27;12.73;;;2.10;99.90;;;;;;5011373;28;20536;-66
2023/01/24 06:03:19;;;;;;;15.40;12.93;;;2.10;99.90;;;;;;4996224;28;20181;-66
2023/01/24 06:05:46;;;;;;;18.57;13.27;;;2.10;99.90;;;;;;5011077;28;20200;-66
2023/01/24 06:08:12;;;;;;;15.57;13.63;;;2.10;99.90;;;;;;4996009;28;20669;-66
2023/01/24 06:10:38;;;;;;;14.23;12.73;;;2.10;99.90;;;;;;4996581;28;20248;-66
2023/01/24 06:13:03;;;;;;;16.57;13.10;;;2.10;99.90;;;;;;4995974;28;20189;-66
2023/01/24 06:15:29;;;;;;;16.40;13.00;;;2.10;99.90;;;;;;4995860;28;20232;-66
2023/01/24 06:17:55;;;;;;;16.93;13.00;;;2.10;99.90;;;;;;5010818;28;20550;-66
2023/01/24 06:20:21;;;;;;;16.27;12.80;;;2.10;99.90;;;;;;4995822;28;20184;-66
2023/01/24 06:22:55;;;;;;;14.13;12.50;;;2.10;99.90;;;;;;4996139;28;20180;-66
2023/01/24 06:25:24;;;;;;;14.97;13.23;;;2.10;99.90;;;;;;4995747;28;20596;-66
2023/01/24 06:27:50;;;;;;;15.60;13.90;;;2.10;99.90;;;;;;4995738;28;20570;-66
2023/01/24 06:30:18;;;;;;;14.77;13.10;;;2.10;99.90;;;;;;4995810;28;20658;-66
2023/01/24 06:33:02;;;;;;;17.13;13.67;;;2.00;99.90;;;;;;4995732;28;20201;-66
2023/01/24 06:35:35;;;;;;;15.50;12.47;;;2.00;99.90;;;;;;4994468;28;20235;-66
2023/01/24 06:38:01;;;;;;;13.90;12.07;;;2.00;99.90;;;;;;4995745;28;20250;-66
2023/01/24 06:40:27;;;;;;;14.47;12.97;;;2.00;99.90;;;;;;4994138;28;20184;-66
2023/01/24 06:42:53;;;;;;;14.90;12.70;;;2.00;99.90;;;;;;4995557;28;20184;-66
2023/01/24 06:45:20;;;;;;;15.77;13.17;;;2.00;99.90;;;;;;4993770;28;20594;-65
2023/01/24 06:47:46;;;;;;;13.80;12.23;;;2.00;99.90;;;;;;4993944;28;20211;-66
2023/01/24 06:50:17;;;;;;;15.80;13.37;;;2.00;99.90;;;;;;4995322;28;20192;-66
2023/01/24 06:52:47;;;;;;;16.17;13.60;;;2.00;99.90;;;;;;4995273;28;20187;-66
2023/01/24 06:55:13;;;;;;;14.53;13.03;;;2.00;99.90;;;;;;4995174;28;20227;-66
2023/01/24 06:57:39;;;;;;;14.80;12.97;;;2.00;99.90;;;;;;4993821;28;20565;-66
2023/01/24 07:00:06;;;;;;;15.73;12.87;;;2.00;99.90;;;;;;4995130;28;20181;-66
2023/01/24 07:02:32;;;;;;;16.07;12.77;;;2.00;99.90;;;;;;4996432;28;20181;-66
2023/01/24 07:04:58;;;;;;;16.00;13.87;;;2.00;99.90;;;;;;4995644;28;20215;-66
2023/01/24 07:07:24;;;;;;;17.87;14.03;;;2.00;99.90;;;;;;4995311;28;20208;-66
2023/01/24 07:09:49;;;;;;;15.13;12.93;;;2.00;99.90;;;;;;4995223;28;20168;-66
2023/01/24 07:12:15;;;;;;;15.87;12.87;;;2.00;99.90;;;;;;4994996;28;20216;-66
2023/01/24 07:14:41;;;;;;;15.73;12.97;;;2.00;99.90;;;;;;4994731;28;20250;-66
2023/01/24 07:17:07;;;;;;;16.17;14.47;;;2.00;99.90;;;;;;4993393;28;20192;-66
2023/01/24 07:19:33;;;;;;;15.63;13.20;;;2.00;99.90;;;;;;4995209;28;20227;-66
2023/01/24 07:21:59;;;;;;;17.67;13.77;;;2.00;99.90;;;;;;4993906;28;20626;-66
2023/01/24 07:24:29;;;;;;;16.17;12.50;;;2.00;99.90;;;;;;5010199;28;20719;-66
2023/01/24 07:26:55;;;;;;;16.53;12.80;;;2.00;99.90;;;;;;4995097;28;20283;-65
2023/01/24 07:29:25;;;;;;;14.77;12.90;;;2.00;99.90;;;;;;4995118;28;20238;-64
2023/01/24 07:31:57;;;;;;;14.63;12.97;;;2.00;99.90;;;;;;4994547;28;20187;-65
2023/01/24 07:34:27;;;;;;;15.43;13.83;;;2.00;99.90;;;;;;4994380;28;20210;-65
2023/01/24 07:37:09;;;;;;;15.77;13.13;;;2.00;99.90;;;;;;5009576;28;20227;-65
2023/01/24 07:39:43;;;;;;;15.20;12.63;;;2.00;99.90;;;;;;5009720;28;20191;-66
2023/01/24 07:42:20;;;;;;;17.43;13.27;;;2.00;99.90;;;;;;4994617;28;20172;-64
2023/01/24 07:44:48;;;;;;;15.40;13.30;;;2.00;99.90;;;;;;5009019;28;20242;-66
2023/01/24 07:47:15;;;;;;;14.83;12.90;;;2.00;99.90;;;;;;5008759;28;20594;-66
2023/01/24 07:49:42;;;;;;;15.00;13.37;;;2.00;99.90;;;;;;5009654;28;20211;-66
2023/01/24 07:52:10;;;;;;;16.03;13.67;;;2.00;99.90;;;;;;4993416;28;20203;-66
2023/01/24 07:54:42;;;;;;;17.07;13.60;;;2.00;99.90;;;;;;5009279;28;20205;-66
2023/01/24 07:57:08;;;;;;;15.47;13.87;;;2.00;99.90;;;;;;5009412;28;20182;-65
2023/01/24 07:59:41;;;;;;;16.67;13.23;;;2.00;99.90;;;;;;5009296;28;20192;-66
2023/01/24 08:02:10;;;;;;;16.33;13.57;;;2.00;99.90;;;;;;4991942;28;20676;-66
2023/01/24 08:04:37;;;;;;;14.23;12.67;;;2.10;99.90;;;;;;4992834;28;20204;-65
2023/01/24 08:07:18;;;;;;;15.73;13.80;;;2.00;99.90;;;;;;5009120;28;20681;-65
2023/01/24 08:09:48;;;;;;;15.10;12.80;;;2.10;99.90;;;;;;4994440;28;20267;-65
2023/01/24 08:12:20;;;;;;;14.87;13.23;;;2.10;99.90;;;;;;5008044;28;20578;-66
2023/01/24 08:14:45;;;;;;;14.87;13.27;;;2.10;99.90;;;;;;4993398;28;20259;-67
2023/01/24 08:17:11;;;;;;;14.67;13.20;;;2.10;99.90;;;;;;4994307;28;20200;-67
2023/01/24 08:19:38;;;;;;;16.77;14.30;;;2.10;99.90;;;;;;4994406;28;20184;-67
2023/01/24 08:22:04;;;;;;;15.13;13.43;;;2.10;99.90;;;;;;4994394;28;20181;-67
2023/01/24 08:24:30;;;;;;;16.17;13.77;;;2.10;99.90;;;;;;4994550;28;20207;-65
2023/01/24 08:26:55;;;;;;;17.33;14.00;;;2.10;99.90;;;;;;4994067;28;20196;-66
2023/01/24 08:29:21;;;;;;;17.10;14.20;;;2.10;99.90;;;;;;4993982;28;20185;-65
2023/01/24 08:31:48;;;;;;;16.90;14.03;;;2.10;99.90;;;;;;4993978;28;20173;-65
2023/01/24 08:34:14;;;;;;;15.53;13.83;;;2.10;99.90;;;;;;4992687;28;20200;-65
2023/01/24 08:36:39;;;;;;;17.33;14.63;;;2.10;99.90;;;;;;5008791;28;20660;-64
2023/01/24 08:39:05;;;;;;;17.33;14.17;;;2.10;99.90;;;;;;4993727;28;20181;-64
2023/01/24 08:41:31;;;;;;;14.43;12.93;;;2.10;99.90;;;;;;4993816;28;20212;-64
2023/01/24 08:43:57;;;;;;;15.90;14.20;;;2.20;99.90;;;;;;4993865;28;20212;-64
2023/01/24 08:46:23;;;;;;;15.57;13.80;;;2.20;99.90;;;;;;4993501;28;20180;-64
2023/01/24 08:48:48;;;;;;;16.40;13.33;;;2.20;99.90;;;;;;4993837;28;20218;-64
2023/01/24 08:51:14;;;;;;;14.77;13.27;;;2.30;99.90;;;;;;4993639;28;20185;-64
2023/01/24 08:53:40;;;;;;;16.87;13.87;;;2.30;99.90;;;;;;4993881;28;20184;-64
2023/01/24 08:56:06;;;;;;;17.03;14.47;;;2.30;99.90;;;;;;4993535;28;20618;-66
2023/01/24 08:58:33;;;;;;;15.27;13.47;;;2.30;99.90;;;;;;4993708;28;20188;-66
2023/01/24 09:00:59;;;;;;;15.63;13.97;;;2.20;99.90;;;;;;5008667;28;20214;-66
2023/01/24 09:03:26;;;;;;;15.10;13.40;;;2.20;99.90;;;;;;4993578;28;20645;-66
2023/01/24 09:05:58;;;;;;;16.27;13.53;;;2.20;99.90;;;;;;4992438;28;20212;-66
2023/01/24 09:08:28;;;;;;;15.97;13.43;;;2.20;99.90;;;;;;4994161;28;20217;-65
2023/01/24 09:11:01;;;;;;;14.57;12.97;;;2.20;99.90;;;;;;4993984;28;20267;-65
2023/01/24 09:13:28;;;;;;;15.73;14.13;;;2.30;99.90;;;;;;4992476;28;20196;-65
2023/01/24 09:15:56;;;;;;;15.13;13.63;;;2.30;99.90;;;;;;4993540;28;20208;-65
2023/01/24 09:18:22;;;;;;;14.63;13.03;;;2.30;99.90;;;;;;4993697;28;20217;-65
2023/01/24 09:20:47;;;;;;;14.97;13.47;;;2.30;99.90;;;;;;4995345;28;20542;-65
2023/01/24 09:23:14;;;;;;;15.43;13.50;;;2.30;99.90;;;;;;4997343;28;20187;-65
2023/01/24 09:25:50;;;;;;;14.47;12.97;;;2.30;99.90;;;;;;4995566;28;20290;-65
2023/01/24 09:28:19;;;;;;;14.83;13.27;;;2.30;99.90;;;;;;5012005;28;20229;-65
2023/01/24 09:30:48;;;;;;;14.60;13.20;;;2.30;99.90;;;;;;4995877;28;20187;-65
2023/01/24 09:33:16;;;;;;;14.23;12.73;;;2.30;99.90;;;;;;4997236;28;20293;-65
2023/01/24 09:35:51;;;;;;;15.83;13.03;;;2.30;99.90;;;;;;4997038;28;20196;-65
2023/01/24 09:38:16;;;;;;;15.37;13.77;;;2.40;99.90;;;;;;4997215;28;20160;-65
2023/01/24 09:40:44;;;;;;;15.43;13.83;;;2.40;99.90;;;;;;4997054;28;20235;-65
2023/01/24 09:43:28;;;;;;;16.10;13.83;;;2.50;99.90;;;;;;4996719;28;20184;-65
2023/01/24 09:46:16;;;;;;;14.90;13.40;;;2.50;99.90;;;;;;4996345;28;20234;-65
2023/01/24 09:48:42;;;;;;;14.37;12.53;;;2.50;99.90;;;;;;4996803;28;20219;-65
2023/01/24 09:51:26;;;;;;;15.73;13.67;;;2.50;99.90;;;;;;4996859;28;20184;-65
2023/01/24 09:53:55;;;;;;;14.67;13.17;;;2.50;99.90;;;;;;4995278;28;20176;-65
2023/01/24 09:56:30;;;;;;;14.27;12.77;;;2.50;99.90;;;;;;4995188;28;20184;-65
2023/01/24 09:59:32;;;;;;;14.97;13.27;;;2.50;99.90;;;;;;4995152;28;20199;-65
2023/01/24 10:01:58;;;;;;;15.13;13.50;;;2.50;99.90;;;;;;4996281;28;20192;-65
2023/01/24 10:04:33;;;;;;;13.87;12.47;;;2.50;99.90;;;;;;4996178;28;20200;-65
2023/01/24 10:07:06;;;;;;;14.83;13.33;;;2.60;99.90;;;;;;4996559;28;20196;-65
2023/01/24 10:09:51;;;;;;;15.13;13.30;;;2.60;99.90;;;;;;4996830;28;20530;-65
2023/01/24 10:12:29;;;;;;;14.40;12.90;;;2.60;99.90;;;;;;4996578;28;20188;-65
2023/01/24 10:15:18;;;;;;;15.07;13.57;;;2.60;99.90;;;;;;4995972;28;20205;-65
2023/01/24 10:18:06;;;;;;;15.20;13.60;;;2.60;99.90;;;;;;4996084;28;20185;-65
2023/01/24 10:20:46;;;;;;;15.27;13.23;;;2.60;99.90;;;;;;4996098;28;20208;-65
2023/01/24 10:23:17;;;;;;;16.30;13.83;;;2.60;99.90;;;;;;4996014;28;20169;-65
2023/01/24 10:26:03;;;;;;;14.67;13.17;;;2.60;99.90;;;;;;4995371;28;20204;-65
2023/01/24 10:28:37;;;;;;;14.40;13.00;;;2.60;99.90;;;;;;4995822;28;20224;-65
2023/01/24 10:31:28;;;;;;;14.70;13.30;;;2.60;99.90;;;;;;4995729;28;20164;-65
2023/01/24 10:34:18;;;;;;;14.30;12.80;;;2.60;99.90;;;;;;4999647;28;20193;-65
2023/01/24 10:36:54;;;;;;;14.27;12.93;;;2.60;99.90;;;;;;4996351;28;20168;-65
2023/01/24 10:39:20;;;;;;;14.37;12.93;;;2.60;99.90;;;;;;4996049;28;20239;-65
2023/01/24 10:41:46;;;;;;;13.70;12.30;;;2.70;99.90;;;;;;4996159;28;20267;-65
2023/01/24 10:44:23;;;;;;;14.77;13.17;;;2.60;99.90;;;;;;4995354;28;20197;-66
2023/01/24 10:47:14;;;;;;;13.50;12.03;;;2.70;99.90;;;;;;4995514;28;20210;-65
2023/01/24 10:49:47;;;;;;;13.37;12.07;;;2.70;99.90;;;;;;4994281;28;20183;-65
2023/01/24 10:52:21;;;;;;;14.07;12.67;;;2.70;99.90;;;;;;4994173;28;20172;-65
2023/01/24 10:54:58;;;;;;;13.30;11.97;;;2.80;99.90;;;;;;4995646;28;20203;-65
2023/01/24 10:57:44;;;;;;;13.73;12.33;;;2.80;99.90;;;;;;4995572;28;20645;-65
2023/01/24 11:00:29;;;;;;;14.90;13.30;;;2.90;99.90;;;;;;4995298;28;20208;-65
2023/01/24 11:03:17;;;;;;;13.50;12.10;;;2.90;99.90;;;;;;4994036;28;20180;-65
2023/01/24 11:05:48;;;;;;;13.77;12.27;;;2.80;99.90;;;;;;4995248;28;20211;-65
2023/01/24 11:08:26;;;;;;;12.97;11.60;;;2.80;99.90;;;;;;4993904;28;20212;-65
2023/01/24 11:10:59;;;;;;;13.00;11.60;;;2.90;99.90;;;;;;5010174;28;20175;-65
2023/01/24 11:13:31;;;;;;;13.53;12.23;;;2.90;99.90;;;;;;4994070;28;20173;-65
2023/01/24 11:16:04;;;;;;;12.87;11.60;;;3.00;99.90;;;;;;4990125;28;20212;-65
2023/01/24 11:18:33;;;;;;;13.83;12.30;;;3.00;99.90;;;;;;4975691;28;20212;-65
2023/01/24 11:21:08;;;;;;;12.33;11.13;;;3.00;99.90;;;;;;4975431;28;20566;-65
2023/01/24 11:23:34;;;;;;;14.00;12.50;;;3.00;99.90;;;;;;4990559;28;20664;-65
2023/01/24 11:26:03;;;;;;;13.10;11.77;;;3.00;99.90;;;;;;4975265;28;20237;-65
2023/01/24 11:28:36;;;;;;;12.93;11.63;;;3.00;99.90;;;;;;4975871;28;20209;-67
2023/01/24 11:31:06;;;;;;;12.17;10.97;;;3.10;99.90;;;;;;4975362;28;20649;-67
2023/01/24 11:33:41;;;;;;;13.07;11.77;;;3.00;99.90;;;;;;4990246;28;20551;-67
2023/01/24 11:36:46;;;;;;;14.07;11.13;;;3.00;99.90;;;;;;4974041;28;20701;-67
2023/01/24 11:39:25;;;;;;;12.30;11.10;;;3.00;99.90;;;;;;4947787;28;20189;-67
2023/01/24 11:42:09;;;;;;;13.17;11.77;;;3.00;99.90;;;;;;4975616;28;20165;-66
2023/01/24 11:45:05;;;;;;;12.87;11.67;;;2.90;99.90;;;;;;4974121;28;20242;-67
2023/01/24 11:47:44;;;;;;;12.97;11.70;;;2.90;99.90;;;;;;4952263;28;20216;-67
2023/01/24 11:50:46;;;;;;;12.37;11.17;;;2.90;99.90;;;;;;4975556;28;20180;-67
2023/01/24 11:53:34;;;;;;;12.47;11.27;;;2.90;99.90;;;;;;4934580;28;20203;-66
2023/01/24 11:56:12;;;;;;;12.60;10.90;;;3.00;99.90;;;;;;4974756;28;20204;-67
2023/01/24 11:58:54;;;;;;;12.63;11.43;;;3.00;99.90;;;;;;4975050;28;20617;-67
2023/01/24 12:01:25;;;;;;;12.37;11.23;;;3.00;99.90;;;;;;4974751;28;20166;-66
2023/01/24 12:03:51;;;;;;;11.93;10.83;;;3.10;99.90;;;;;;4974580;28;20181;-66
2023/01/24 12:06:52;;;;;;;12.50;11.23;;;3.10;99.90;;;;;;4974837;28;20595;-66
2023/01/24 12:09:20;;;;;;;12.53;11.33;;;3.10;99.90;;;;;;4934853;28;20255;-66
2023/01/24 12:11:46;;;;;;;12.13;10.90;;;3.00;99.90;;;;;;4974730;28;20185;-66
2023/01/24 12:14:14;;;;;;;12.47;11.27;;;3.10;99.90;;;;;;4973216;28;20212;-67
2023/01/24 12:17:27;;;;;;;11.93;10.73;;;3.00;99.90;;;;;;4989456;28;20219;-67
2023/01/24 12:20:14;;;;;;;12.13;10.93;;;3.10;99.90;;;;;;4994132;28;20590;-67
2023/01/24 12:22:41;;;;;;;11.30;10.10;;;3.10;99.90;;;;;;4994375;28;20514;-66
2023/01/24 12:25:25;;;;;;;12.20;10.97;;;3.10;99.90;;;;;;4994068;28;20589;-66
2023/01/24 12:27:55;;;;;;;12.53;11.27;;;3.10;99.90;;;;;;4994673;28;20582;-66
2023/01/24 12:30:30;;;;;;;13.13;11.83;;;3.10;99.90;;;;;;4993921;28;20173;-67
2023/01/24 12:33:15;;;;;;;12.67;11.37;;;3.10;99.90;;;;;;4993952;28;20238;-66
2023/01/24 12:35:47;;;;;;;10.93;9.93;;;3.10;99.90;;;;;;4992629;28;20205;-66
2023/01/24 12:38:29;;;;;;;13.83;12.33;;;3.10;99.90;;;;;;4994148;28;20176;-67
2023/01/24 12:41:15;;;;;;;13.30;11.60;;;3.10;99.90;;;;;;4992697;28;20208;-66
2023/01/24 12:43:46;;;;;;;12.23;11.03;;;3.10;99.90;;;;;;4980399;28;20287;-66
2023/01/24 12:46:32;;;;;;;14.63;11.23;;;3.10;99.90;;;;;;4993553;28;20303;-66
2023/01/24 12:49:00;;;;;;;12.27;11.07;;;3.00;99.90;;;;;;5008955;28;20295;-66
2023/01/24 12:51:51;;;;;;;12.33;11.13;;;3.00;99.90;;;;;;4992612;28;20246;-66
2023/01/24 12:54:27;;;;;;;12.57;11.30;;;3.10;99.90;;;;;;4994533;28;20659;-66
2023/01/24 12:57:05;;;;;;;13.80;11.70;;;3.10;99.90;;;;;;4998692;28;20180;-66
2023/01/24 12:59:33;;;;;;;13.57;12.07;;;3.10;99.90;;;;;;5013128;28;20551;-66
2023/01/24 13:02:20;;;;;;;13.03;11.63;;;3.10;99.90;;;;;;4996937;28;20622;-66
2023/01/24 13:05:24;;;;;;;12.00;10.90;;;3.20;99.90;;;;;;4998067;28;20196;-66
2023/01/24 13:08:02;;;;;;;11.97;10.77;;;3.20;99.90;;;;;;4996040;28;20212;-66
2023/01/24 13:10:49;;;;;;;12.60;11.40;;;3.10;99.90;;;;;;4997341;28;20180;-66
2023/01/24 13:13:22;;;;;;;13.00;11.20;;;3.10;99.90;;;;;;4997682;28;20167;-66
2023/01/24 13:16:08;;;;;;;11.80;10.60;;;3.00;99.90;;;;;;4995836;28;20587;-66
2023/01/24 13:19:05;;;;;;;14.00;11.77;;;3.00;99.90;;;;;;4996871;28;20322;-66
2023/01/24 13:22:17;;;;;;;12.43;11.13;;;2.90;99.90;;;;;;4997297;28;20165;-66
2023/01/24 13:24:48;;;;;;;13.37;11.97;;;3.00;99.90;;;;;;4953663;28;20220;-66
2023/01/24 13:28:05;;;;;;;14.13;12.67;;;3.00;99.90;;;;;;4995788;28;20232;-66
2023/01/24 13:30:57;;;;;;;14.40;11.87;;;3.00;99.90;;;;;;4953884;28;20219;-66
2023/01/24 13:33:35;;;;;;;12.37;11.27;;;3.00;99.90;;;;;;4959737;28;20275;-66
2023/01/24 13:36:04;;;;;;;11.50;10.40;;;3.00;99.90;;;;;;4996916;28;20564;-66